Skip Navigation Links
NOAA logo - Click to go to the NOAA homepage
NOAA's National Weather Service
Alaska Aviation Weather Unit
  NWS logo - Click to go to the NWS homepage
Left Navbar Graphic     21 AKDT = 05 GMT

   
NOAA is celebrating 200 years of science, service, and stewardship. Visit the NOAA 200th celebration Web site to learn more.
USA.gov is the U.S. Government's official Web portal to all Federal, state and local government Web resources and services.
Facebook
NWS on Facebook

Important Change Regarding the AAWU Web Presence

 

Over the last several months, the AAWU has been working to navigate its webpages to a nationally supported server. Security, as well as other needs, have necessitated the change.  In the process, we have made an effort to enhance the functionality of our website, as well as some of our products. As of June 27, 2017, aawu.arh.noaa.gov will be discontinued. The new AAWU web address is weather.gov/aawu. It is now live and will run in-parallel with the old site until it is discontinued. Please send any feedback or questions regarding the new webpages to nws.ar.aawu.webauthors@noaa.gov.  Thank you for your patience during this time of transition.
AAWU Home :: Display TAF Add Bookmark
TAF PADU 250210Z 2502/2524 15012G20KT P6SM -RA SCT015 OVC022
     FM250600 15018G26KT 5SM -RA BR SCT007 OVC012
     FM251800 18010G18KT 6SM -SHRA SCT007 OVC015=

PADU 242322Z 14016G22KT 10SM -RA SCT015 BKN021 OVC025 11/07 A3007 RMK AO2 RAB20 CS P0000= METAR PADU 250056Z 15013G19KT 10SM -RA SCT014 BKN019 OVC024 11/07 A3004 RMK AO2 SLP174 CS P0000 T01060072= METAR PADU 250156Z 14015G20KT 10SM -RA SCT016 BKN022 OVC028 11/07 A3002 RMK AO2 SLP167 EM P0001 T01060072= SPECI PADU 250205Z 14015G20KT 10SM -RA SCT016 BKN022 OVC028 11/07 A3002 RMK AO2 EM P0000= PADU 250256Z 15017G24KT 10SM SCT015 BKN022 OVC028 11/07 A2999 RMK AO2 RAE26 SLP155 VCSH NE EM P0000 60001 T01060072 58025= METAR PADU 250356Z 15016G22KT 10SM SCT016 BKN022 OVC026 11/07 A2996 RMK AO2 PK WND 15029/0334 RAB02E17 SLP145 EM P0000 T01060072= METAR PADU 250456Z 16017G25KT 10SM -RA SCT016 OVC022 10/07 A2993 RMK AO2 RAB18 SLP137 EM P0000 T01000067= SPECI PADU 250504Z 15015G29KT 10SM -RA SCT016 OVC022 10/07 A2993 RMK AO2 PK WND 14029/0458 LAST EM P0000=
 Alaska TAF Map

NOAA's National Weather Service
Alaska Aviation Weather Unit
6930 Sand Lake Road
Anchorage, AK 99502-1845
Disclaimer
Credits
Glossary
Privacy Policy
About Us
Career Opportunities
Contact AAWU Internet Services Site last modified: April, 17th 2012